createdAt,value
2024-01-15T00:02:23.727Z,-5.22
2024-01-15T00:04:51.390Z,-4.92
2024-01-15T00:07:19.217Z,-4.38
2024-01-15T00:09:47.041Z,-2.54
2024-01-15T00:12:14.727Z,-1.34
2024-01-15T00:14:42.299Z,-0.18
2024-01-15T00:17:10.252Z,0.14
2024-01-15T00:19:38.632Z,0.60
2024-01-15T00:22:06.314Z,0.67
2024-01-15T00:24:34.138Z,0.75
2024-01-15T00:27:01.862Z,0.79
2024-01-15T00:29:29.609Z,0.68
2024-01-15T00:31:57.264Z,0.49
2024-01-15T00:34:25.088Z,0.63
2024-01-15T00:36:52.664Z,0.74
2024-01-15T00:39:20.571Z,0.78
2024-01-15T00:41:48.272Z,0.74
2024-01-15T00:44:16.128Z,0.79
2024-01-15T00:46:47.409Z,0.83
2024-01-15T00:49:15.734Z,0.78
2024-01-15T00:51:43.516Z,0.67
2024-01-15T00:54:11.374Z,0.58
2024-01-15T00:56:39.102Z,0.68
2024-01-15T00:59:07.353Z,0.72
2024-01-15T01:01:35.156Z,0.72
2024-01-15T01:04:02.977Z,0.58
2024-01-15T01:06:33.484Z,0.50
2024-01-15T01:09:02.006Z,0.59
2024-01-15T01:11:30.882Z,0.67
2024-01-15T01:13:58.593Z,0.82
2024-01-15T01:16:26.501Z,0.87
2024-01-15T01:18:54.271Z,0.85
2024-01-15T01:21:22.102Z,0.82
2024-01-15T01:23:49.874Z,0.78
2024-01-15T01:26:18.658Z,0.83
2024-01-15T01:28:46.358Z,0.76
2024-01-15T01:31:13.974Z,0.85
2024-01-15T01:33:42.181Z,0.96
2024-01-15T01:36:11.246Z,1.02
2024-01-15T01:38:39.727Z,1.00
2024-01-15T01:41:07.484Z,1.14
2024-01-15T01:43:35.103Z,1.22
2024-01-15T01:46:04.436Z,1.34
2024-01-15T01:48:33.570Z,1.50
2024-01-15T01:51:04.793Z,1.42
2024-01-15T01:53:35.319Z,1.38
2024-01-15T01:56:04.604Z,1.45
2024-01-15T01:58:34.883Z,1.43
2024-01-15T02:01:02.905Z,1.46
2024-01-15T02:03:32.366Z,1.37
2024-01-15T02:06:02.181Z,1.34
2024-01-15T02:08:30.495Z,1.32
2024-01-15T02:10:58.114Z,1.35
2024-01-15T02:13:25.780Z,1.33
2024-01-15T02:15:53.683Z,1.28
2024-01-15T02:18:22.262Z,1.31
2024-01-15T02:20:49.951Z,1.26
2024-01-15T02:23:17.908Z,1.18
2024-01-15T02:25:48.436Z,1.13
2024-01-15T02:28:18.107Z,1.05
2024-01-15T02:30:46.255Z,0.94
2024-01-15T02:33:14.884Z,0.88
2024-01-15T02:35:43.007Z,0.95
2024-01-15T02:38:10.604Z,1.02
2024-01-15T02:40:39.548Z,0.98
2024-01-15T02:43:06.996Z,0.96
2024-01-15T02:45:34.590Z,0.81
2024-01-15T02:48:02.411Z,0.66
2024-01-15T02:50:30.195Z,0.61
2024-01-15T02:52:57.928Z,0.51
2024-01-15T02:55:25.616Z,0.40
2024-01-15T02:57:53.426Z,0.22
2024-01-15T03:00:23.396Z,0.04
2024-01-15T03:02:52.437Z,-0.07
2024-01-15T03:05:21.395Z,-0.25
2024-01-15T03:07:49.233Z,-0.28
2024-01-15T03:10:17.131Z,-0.33
2024-01-15T03:12:44.827Z,-0.38
2024-01-15T03:15:12.830Z,-0.43
2024-01-15T03:17:42.307Z,-0.43
2024-01-15T03:20:10.619Z,-0.46
2024-01-15T03:22:38.332Z,-0.55
2024-01-15T03:25:07.509Z,-0.52
2024-01-15T03:27:35.308Z,-0.55
2024-01-15T03:30:03.919Z,-0.58
2024-01-15T03:32:32.564Z,-0.58
2024-01-15T03:35:00.647Z,-0.61
2024-01-15T03:37:28.334Z,-0.65
2024-01-15T03:39:56.292Z,-0.54
2024-01-15T03:42:24.085Z,-0.61
2024-01-15T03:44:51.731Z,-0.57
2024-01-15T03:47:19.352Z,-0.61
2024-01-15T03:49:47.112Z,-0.69
2024-01-15T03:52:14.906Z,-0.65
2024-01-15T03:54:42.879Z,-0.64
2024-01-15T03:57:10.556Z,-0.64
2024-01-15T03:59:38.131Z,-0.63
2024-01-15T04:02:05.874Z,-0.71
2024-01-15T04:04:33.523Z,-0.74
2024-01-15T04:07:01.254Z,-0.68
2024-01-15T04:09:28.979Z,-0.73
2024-01-15T04:11:56.603Z,-0.79
2024-01-15T04:14:24.159Z,-0.74
2024-01-15T04:16:51.781Z,-0.66
2024-01-15T04:19:19.425Z,-0.71
2024-01-15T04:21:47.252Z,-0.72
2024-01-15T04:24:14.985Z,-0.71
2024-01-15T04:26:42.556Z,-0.68
2024-01-15T04:29:10.320Z,-0.66
2024-01-15T04:31:38.068Z,-0.63
2024-01-15T04:34:05.795Z,-0.64
2024-01-15T04:36:33.608Z,-0.64
2024-01-15T04:39:01.164Z,-0.73
2024-01-15T04:41:28.845Z,-0.62
2024-01-15T04:43:56.563Z,-0.66
2024-01-15T04:46:24.367Z,-0.66
2024-01-15T04:48:52.171Z,-0.60
2024-01-15T04:51:19.916Z,-0.60
2024-01-15T04:53:47.549Z,-0.56
2024-01-15T04:56:15.238Z,-0.56
2024-01-15T04:58:42.822Z,-0.58
2024-01-15T05:01:11.523Z,-0.54
2024-01-15T05:03:39.397Z,-0.61
2024-01-15T05:06:07.470Z,-0.68
2024-01-15T05:08:35.126Z,-0.57
2024-01-15T05:11:02.823Z,-0.60
2024-01-15T05:13:30.519Z,-0.61
2024-01-15T05:15:58.182Z,-0.59
2024-01-15T05:18:25.907Z,-0.61
2024-01-15T05:20:53.976Z,-0.63
2024-01-15T05:23:21.793Z,-0.57
2024-01-15T05:25:49.472Z,-0.60
2024-01-15T05:28:17.297Z,-0.58
2024-01-15T05:30:45.145Z,-0.58
2024-01-15T05:33:12.986Z,-0.64
2024-01-15T05:35:40.609Z,-0.62
2024-01-15T05:38:08.394Z,-0.57
2024-01-15T05:40:36.121Z,-0.64
2024-01-15T05:43:03.799Z,-0.64
2024-01-15T05:45:32.131Z,-0.71
2024-01-15T05:47:59.919Z,-0.75
2024-01-15T05:50:27.583Z,-0.63
2024-01-15T05:52:55.261Z,-0.78
2024-01-15T05:55:22.791Z,-0.78
2024-01-15T05:57:50.552Z,-0.78
2024-01-15T06:00:19.543Z,-0.72
2024-01-15T06:02:48.037Z,-0.76
2024-01-15T06:05:19.005Z,-0.70
2024-01-15T06:07:46.766Z,-0.70
2024-01-15T06:10:14.390Z,-0.68
2024-01-15T06:12:42.087Z,-0.69
2024-01-15T06:15:10.209Z,-0.79
2024-01-15T06:17:38.991Z,-0.81
2024-01-15T06:20:07.329Z,-0.83
2024-01-15T06:22:35.118Z,-0.85
2024-01-15T06:25:02.793Z,-0.87
2024-01-15T06:27:30.601Z,-0.83
2024-01-15T06:29:58.222Z,-0.82
2024-01-15T06:32:25.929Z,-0.83
2024-01-15T06:34:53.806Z,-0.82
2024-01-15T06:37:21.576Z,-0.77
2024-01-15T06:39:49.332Z,-0.79
2024-01-15T06:42:17.369Z,-0.74
2024-01-15T06:44:45.036Z,-0.83
2024-01-15T06:47:12.840Z,-0.79
2024-01-15T06:49:40.522Z,-0.78
2024-01-15T06:52:08.314Z,-0.72
2024-01-15T06:54:35.988Z,-0.73
2024-01-15T06:57:03.770Z,-0.76
2024-01-15T06:59:31.487Z,-0.76
2024-01-15T07:02:00.563Z,-0.74
2024-01-15T07:04:28.248Z,-0.74
2024-01-15T07:06:55.903Z,-0.76
2024-01-15T07:09:24.107Z,-0.72
2024-01-15T07:11:51.894Z,-0.68
2024-01-15T07:14:19.559Z,-0.69
2024-01-15T07:16:48.664Z,-0.69
2024-01-15T07:19:16.771Z,-0.65
2024-01-15T07:21:44.706Z,-0.63
2024-01-15T07:24:12.689Z,-0.64
2024-01-15T07:26:40.836Z,-0.62
2024-01-15T07:29:09.676Z,-0.54
2024-01-15T07:31:37.840Z,-0.58
2024-01-15T07:34:05.743Z,-0.55
2024-01-15T07:36:33.484Z,-0.48
2024-01-15T07:39:01.171Z,-0.45
2024-01-15T07:41:28.910Z,-0.45
2024-01-15T07:43:56.574Z,-0.40
2024-01-15T07:46:24.240Z,-0.42
2024-01-15T07:48:57.523Z,-0.45
2024-01-15T07:51:25.936Z,-0.43
2024-01-15T07:53:56.560Z,-0.51
2024-01-15T07:56:24.279Z,-0.50
2024-01-15T07:58:51.944Z,-0.51
2024-01-15T08:01:19.773Z,-0.54
2024-01-15T08:03:47.677Z,-0.64
2024-01-15T08:06:15.634Z,-0.66
2024-01-15T08:08:43.445Z,-0.67
2024-01-15T08:11:11.039Z,-0.68
2024-01-15T08:13:38.713Z,-0.66
2024-01-15T08:16:06.790Z,-0.74
2024-01-15T08:18:34.758Z,-0.85
2024-01-15T08:21:02.882Z,-0.96
2024-01-15T08:23:32.671Z,-0.87
2024-01-15T08:26:00.361Z,-0.90
2024-01-15T08:28:28.268Z,-0.93
2024-01-15T08:30:55.964Z,-1.07
2024-01-15T08:33:23.870Z,-1.05
2024-01-15T08:35:51.745Z,-1.07
2024-01-15T08:38:20.529Z,-1.03
2024-01-15T08:40:48.488Z,-1.05
2024-01-15T08:43:16.153Z,-1.04
2024-01-15T08:45:44.075Z,-0.97
2024-01-15T08:48:11.929Z,-0.82
2024-01-15T08:50:39.725Z,-0.78
2024-01-15T08:53:07.366Z,-0.69
2024-01-15T08:55:35.090Z,-0.71
2024-01-15T08:58:02.905Z,-0.75
2024-01-15T09:00:32.612Z,-0.73
2024-01-15T09:03:00.214Z,-0.58
2024-01-15T09:05:28.029Z,-0.71
2024-01-15T09:07:56.358Z,-0.72
2024-01-15T09:10:24.214Z,-0.58
2024-01-15T09:12:54.596Z,-0.59
2024-01-15T09:15:22.335Z,-0.50
2024-01-15T09:17:50.110Z,-0.71
2024-01-15T09:20:17.877Z,-0.71
2024-01-15T09:22:46.658Z,-0.60
2024-01-15T09:25:14.404Z,-0.64
2024-01-15T09:27:42.139Z,-0.69
2024-01-15T09:30:10.350Z,-0.43
2024-01-15T09:32:38.258Z,-0.31
2024-01-15T09:35:06.744Z,-0.27
2024-01-15T09:37:42.406Z,-0.46
2024-01-15T09:40:18.311Z,-0.42
2024-01-15T09:42:47.701Z,-0.49
2024-01-15T09:45:16.069Z,-0.56
2024-01-15T09:47:45.989Z,-0.67
2024-01-15T09:50:16.444Z,-0.64
2024-01-15T09:52:54.124Z,-0.41
2024-01-15T09:55:22.414Z,-0.48
2024-01-15T09:57:51.736Z,-0.49
2024-01-15T10:00:22.222Z,-0.63
2024-01-15T10:02:50.864Z,-0.47
2024-01-15T10:05:18.547Z,-0.54
2024-01-15T10:07:48.727Z,-0.60
2024-01-15T10:10:16.747Z,-0.59
2024-01-15T10:12:45.482Z,-0.71
2024-01-15T10:15:13.845Z,-0.78
2024-01-15T10:17:41.947Z,-0.81
2024-01-15T10:20:12.003Z,-0.83
2024-01-15T10:22:44.629Z,-0.91
2024-01-15T10:25:13.302Z,-0.93
2024-01-15T10:27:45.443Z,-0.83
2024-01-15T10:30:15.537Z,-0.74
2024-01-15T10:32:43.514Z,-0.78
2024-01-15T10:35:11.726Z,-0.68
2024-01-15T10:37:39.411Z,-0.66
2024-01-15T10:40:07.587Z,-0.59
2024-01-15T10:42:35.517Z,-0.51
2024-01-15T10:45:03.190Z,-0.52
2024-01-15T10:47:32.079Z,-0.44
2024-01-15T10:49:59.965Z,-0.41
2024-01-15T10:52:30.635Z,-0.31
2024-01-15T10:54:59.519Z,-0.25
2024-01-15T10:57:29.178Z,-0.33
2024-01-15T10:59:57.094Z,-0.39
2024-01-15T11:02:26.635Z,-0.22
2024-01-15T11:04:54.452Z,-0.04
2024-01-15T11:07:28.000Z,-0.21
2024-01-15T11:10:05.496Z,-0.21
2024-01-15T11:12:33.696Z,-0.12
2024-01-15T11:15:11.416Z,-0.24
2024-01-15T11:18:02.476Z,-0.12
2024-01-15T11:20:31.360Z,-0.19
2024-01-15T11:23:00.500Z,-0.19
2024-01-15T11:25:38.502Z,-0.03
2024-01-15T11:28:06.390Z,-0.18
2024-01-15T11:30:37.610Z,-0.24
2024-01-15T11:33:08.559Z,-0.20
2024-01-15T11:35:52.200Z,-0.16
2024-01-15T11:38:38.055Z,-0.14
2024-01-15T11:41:16.593Z,-0.05
2024-01-15T11:43:44.173Z,-0.05
2024-01-15T11:46:16.300Z,-0.14
2024-01-15T11:48:48.583Z,0.07
2024-01-15T11:51:19.897Z,-0.07
2024-01-15T11:53:50.283Z,-0.12
2024-01-15T11:56:19.248Z,-0.17
2024-01-15T11:58:46.913Z,-0.08
2024-01-15T12:01:14.936Z,-0.23
2024-01-15T12:03:42.549Z,-0.11
2024-01-15T12:06:11.518Z,-0.13
2024-01-15T12:08:39.280Z,-0.14
2024-01-15T12:11:15.307Z,-0.16
2024-01-15T12:13:42.974Z,-0.14
2024-01-15T12:16:11.416Z,-0.14
2024-01-15T12:18:39.262Z,-0.24
2024-01-15T12:21:06.905Z,-0.19
2024-01-15T12:23:35.510Z,-0.21
2024-01-15T12:26:03.319Z,-0.21
2024-01-15T12:28:31.613Z,-0.18
2024-01-15T12:31:01.722Z,-0.08
2024-01-15T12:33:29.881Z,-0.25
2024-01-15T12:35:57.771Z,-0.23
2024-01-15T12:38:25.388Z,-0.25
2024-01-15T12:40:53.226Z,-0.27
2024-01-15T12:43:21.250Z,-0.30
2024-01-15T12:45:49.250Z,-0.35
2024-01-15T12:48:19.367Z,-0.35
2024-01-15T12:50:49.153Z,-0.35
2024-01-15T12:53:17.458Z,-0.39
2024-01-15T12:55:45.132Z,-0.42
2024-01-15T12:58:12.871Z,-0.45
2024-01-15T13:00:40.925Z,-0.58
2024-01-15T13:03:08.840Z,-0.44
2024-01-15T13:05:37.848Z,-0.66
2024-01-15T13:08:06.159Z,-0.62
2024-01-15T13:10:33.815Z,-0.56
2024-01-15T13:13:01.459Z,-0.62
2024-01-15T13:15:29.215Z,-0.66
2024-01-15T13:17:57.442Z,-0.52
2024-01-15T13:20:24.994Z,-0.69
2024-01-15T13:22:52.694Z,-0.75
2024-01-15T13:25:21.770Z,-0.83
2024-01-15T13:27:49.162Z,-0.97
2024-01-15T13:30:17.151Z,-1.09
2024-01-15T13:32:44.893Z,-1.03
2024-01-15T13:35:14.950Z,-1.03
2024-01-15T13:37:42.903Z,-1.07
2024-01-15T13:40:11.063Z,-1.05
2024-01-15T13:42:39.616Z,-0.99
2024-01-15T13:45:09.046Z,-0.90
2024-01-15T13:47:37.074Z,-0.87
2024-01-15T13:50:05.141Z,-0.83
2024-01-15T13:52:32.768Z,-0.69
2024-01-15T13:55:00.578Z,-0.65
2024-01-15T13:57:28.285Z,-0.67
2024-01-15T13:59:56.312Z,-0.68
2024-01-15T14:02:25.175Z,-0.69
2024-01-15T14:04:54.466Z,-0.66
2024-01-15T14:07:22.362Z,-0.61
2024-01-15T14:09:50.290Z,-0.56
2024-01-15T14:12:18.011Z,-0.42
2024-01-15T14:14:45.779Z,-0.35
2024-01-15T14:17:13.267Z,-0.29
2024-01-15T14:19:41.007Z,-0.21
2024-01-15T14:22:09.039Z,-0.21
2024-01-15T14:24:36.731Z,-0.13
2024-01-15T14:27:06.503Z,-0.01
2024-01-15T14:29:35.394Z,-0.14
2024-01-15T14:32:03.432Z,-0.10
2024-01-15T14:34:31.245Z,-0.01
2024-01-15T14:36:59.078Z,0.12
2024-01-15T14:39:29.554Z,0.06
2024-01-15T14:41:58.118Z,0.12
2024-01-15T14:44:25.651Z,0.06
2024-01-15T14:46:53.214Z,0.12
2024-01-15T14:49:21.159Z,-0.01
2024-01-15T14:51:50.487Z,0.02
2024-01-15T14:54:18.311Z,0.02
2024-01-15T14:56:45.888Z,-0.05
2024-01-15T14:59:13.625Z,-0.10
2024-01-15T15:01:43.266Z,-0.15
2024-01-15T15:04:11.957Z,-0.16
2024-01-15T15:06:39.761Z,-0.21
2024-01-15T15:09:11.234Z,-0.22
2024-01-15T15:11:39.191Z,-0.21
2024-01-15T15:14:06.928Z,-0.28
2024-01-15T15:16:34.713Z,-0.34
2024-01-15T15:19:02.615Z,-0.47
2024-01-15T15:21:30.933Z,-0.54
2024-01-15T15:23:58.576Z,-0.49
2024-01-15T15:26:26.256Z,-0.42
2024-01-15T15:28:53.955Z,-0.42
2024-01-15T15:31:21.563Z,-0.36
2024-01-15T15:33:49.386Z,-0.36
2024-01-15T15:36:17.718Z,-0.47
2024-01-15T15:38:45.344Z,-0.37
2024-01-15T15:41:13.088Z,-0.38
2024-01-15T15:43:40.990Z,-0.41
2024-01-15T15:46:09.281Z,-0.32
2024-01-15T15:48:37.253Z,-0.22
2024-01-15T15:51:05.294Z,-0.13
2024-01-15T15:53:33.081Z,-0.10
2024-01-15T15:56:00.667Z,-0.10
2024-01-15T15:58:28.412Z,-0.09
2024-01-15T16:00:56.103Z,-0.06
2024-01-15T16:03:23.977Z,-0.07
2024-01-15T16:05:53.565Z,-0.07
2024-01-15T16:08:21.963Z,0.03
2024-01-15T16:10:51.992Z,-0.04
2024-01-15T16:13:20.403Z,-0.11
2024-01-15T16:15:48.510Z,-0.16
2024-01-15T16:23:20.006Z,-0.14
2024-01-15T16:23:34.754Z,-0.11
2024-01-15T16:24:12.298Z,-0.20
2024-01-15T16:26:43.007Z,-0.43
2024-01-15T16:29:10.985Z,-0.45
2024-01-15T16:31:41.950Z,-0.72
2024-01-15T16:34:11.765Z,-0.79
2024-01-15T16:36:40.346Z,-0.91
2024-01-15T16:39:08.041Z,-1.07
2024-01-15T16:41:36.114Z,-1.24
2024-01-15T16:44:03.893Z,-1.36
2024-01-15T16:46:31.792Z,-1.42
2024-01-15T16:49:01.864Z,-1.47
2024-01-15T16:51:29.642Z,-1.53
2024-01-15T16:53:57.328Z,-1.57
2024-01-15T16:56:24.953Z,-1.63
2024-01-15T16:58:53.940Z,-1.59
2024-01-15T17:01:22.461Z,-1.59
2024-01-15T17:03:50.615Z,-1.55
2024-01-15T17:06:18.250Z,-1.47
2024-01-15T17:08:45.910Z,-1.43
2024-01-15T17:11:13.519Z,-1.44
2024-01-15T17:13:41.158Z,-1.40
2024-01-15T17:16:09.660Z,-1.33
2024-01-15T17:18:37.432Z,-1.21
2024-01-15T17:21:06.179Z,-0.98
2024-01-15T17:23:33.952Z,-0.87
2024-01-15T17:26:01.820Z,-0.83
2024-01-15T17:28:29.444Z,-0.71
2024-01-15T17:30:57.125Z,-0.67
2024-01-15T17:33:24.787Z,-0.58
2024-01-15T17:35:53.811Z,-0.59
2024-01-15T17:38:21.550Z,-0.43
2024-01-15T17:40:49.704Z,-0.39
2024-01-15T17:43:17.727Z,-0.36
2024-01-15T17:45:45.408Z,-0.31
2024-01-15T17:48:13.763Z,-0.28
2024-01-15T17:50:41.633Z,-0.21
2024-01-15T17:53:10.438Z,-0.18
2024-01-15T17:55:38.485Z,-0.05
2024-01-15T17:58:07.160Z,-0.11
2024-01-15T18:00:35.493Z,0.05
2024-01-15T18:03:03.673Z,-0.01
2024-01-15T18:05:31.493Z,-0.04
2024-01-15T18:08:02.806Z,-0.06
2024-01-15T18:10:30.434Z,-0.05
2024-01-15T18:12:58.165Z,-0.09
2024-01-15T18:15:25.958Z,-0.20
2024-01-15T18:17:54.510Z,-0.23
2024-01-15T18:20:22.533Z,-0.21
2024-01-15T18:22:51.668Z,-0.26
2024-01-15T18:25:20.127Z,-0.27
2024-01-15T18:27:47.819Z,-0.25
2024-01-15T18:30:16.383Z,-0.31
2024-01-15T18:32:44.233Z,-0.31
2024-01-15T18:35:12.025Z,-0.37
2024-01-15T18:37:39.658Z,-0.35
2024-01-15T18:40:08.050Z,-0.37
2024-01-15T18:42:35.840Z,-0.42
2024-01-15T18:45:03.596Z,-0.46
2024-01-15T18:47:31.329Z,-0.49
2024-01-15T18:49:59.161Z,-0.51
2024-01-15T18:52:27.375Z,-0.63
2024-01-15T18:54:55.045Z,-0.62
2024-01-15T18:57:22.805Z,-0.63
2024-01-15T18:59:50.561Z,-0.65
2024-01-15T19:02:18.445Z,-0.72
2024-01-15T19:04:47.047Z,-0.78
2024-01-15T19:07:14.746Z,-0.82
2024-01-15T19:09:42.805Z,-0.92
2024-01-15T19:12:10.570Z,-0.96
2024-01-15T19:14:38.204Z,-0.94
2024-01-15T19:17:06.063Z,-0.97
2024-01-15T19:19:38.152Z,-0.98
2024-01-15T19:22:06.134Z,-1.08
2024-01-15T19:24:33.740Z,-1.20
2024-01-15T19:27:01.486Z,-1.19
2024-01-15T19:29:29.647Z,-1.36
2024-01-15T19:31:59.734Z,-1.49
2024-01-15T19:34:27.687Z,-1.60
2024-01-15T19:36:55.557Z,-1.69
2024-01-15T19:39:24.338Z,-1.82
2024-01-15T19:41:52.062Z,-1.91
2024-01-15T19:44:19.667Z,-1.94
2024-01-15T19:46:48.687Z,-1.82
2024-01-15T19:49:17.037Z,-1.57
2024-01-15T19:51:45.166Z,-1.55
2024-01-15T19:54:12.802Z,-1.59
2024-01-15T19:56:40.630Z,-1.54
2024-01-15T19:59:08.333Z,-1.53
2024-01-15T20:01:36.022Z,-1.53
2024-01-15T20:04:05.205Z,-1.46
2024-01-15T20:06:33.070Z,-1.37
2024-01-15T20:09:00.761Z,-1.32
2024-01-15T20:11:28.483Z,-1.27
2024-01-15T20:13:56.223Z,-1.32
2024-01-15T20:16:25.431Z,-1.46
2024-01-15T20:18:53.246Z,-1.52
2024-01-15T20:21:20.975Z,-1.54
2024-01-15T20:23:55.313Z,-1.60
2024-01-15T20:26:26.910Z,-1.66
2024-01-15T20:28:55.754Z,-1.78
2024-01-15T20:31:23.410Z,-1.71
2024-01-15T20:33:51.629Z,-1.86
2024-01-15T20:36:19.424Z,-2.07
2024-01-15T20:38:47.371Z,-2.09
2024-01-15T20:41:17.448Z,-2.07
2024-01-15T20:43:48.266Z,-1.91
2024-01-15T20:46:15.962Z,-1.77
2024-01-15T20:48:43.928Z,-1.76
2024-01-15T20:51:12.005Z,-1.63
2024-01-15T20:53:43.396Z,-1.50
2024-01-15T20:56:11.695Z,-1.44
2024-01-15T20:58:39.489Z,-1.34
2024-01-15T21:01:08.250Z,-1.33
2024-01-15T21:03:36.670Z,-1.29
2024-01-15T21:06:04.911Z,-1.26
2024-01-15T21:08:32.879Z,-1.25
2024-01-15T21:11:03.688Z,-1.23
2024-01-15T21:13:31.879Z,-1.21
2024-01-15T21:15:59.537Z,-1.23
2024-01-15T21:18:27.259Z,-1.28
2024-01-15T21:20:56.446Z,-1.30
2024-01-15T21:23:24.343Z,-1.42
2024-01-15T21:25:52.259Z,-1.42
2024-01-15T21:28:20.239Z,-1.45
2024-01-15T21:30:48.230Z,-1.42
2024-01-15T21:33:16.066Z,-1.44
2024-01-15T21:35:43.901Z,-1.42
2024-01-15T21:38:11.675Z,-1.41
2024-01-15T21:40:39.417Z,-1.40
2024-01-15T21:43:07.136Z,-1.33
2024-01-15T21:45:34.744Z,-1.32
2024-01-15T21:48:02.997Z,-1.37
2024-01-15T21:50:30.648Z,-1.37
2024-01-15T21:52:58.373Z,-1.44
2024-01-15T21:55:25.971Z,-1.44
2024-01-15T21:57:53.817Z,-1.55
2024-01-15T22:00:22.655Z,-1.56
2024-01-15T22:02:51.569Z,-1.63
2024-01-15T22:05:19.711Z,-1.67
2024-01-15T22:07:47.405Z,-1.78
2024-01-15T22:10:15.099Z,-1.83
2024-01-15T22:12:42.637Z,-1.86
2024-01-15T22:15:10.611Z,-1.92
2024-01-15T22:17:38.290Z,-1.88
2024-01-15T22:20:06.749Z,-1.89
2024-01-15T22:22:35.438Z,-1.88
2024-01-15T22:25:03.183Z,-1.83
2024-01-15T22:27:30.745Z,-1.79
2024-01-15T22:29:58.219Z,-1.82
2024-01-15T22:32:28.436Z,-1.77
2024-01-15T22:34:57.949Z,-1.84
2024-01-15T22:37:25.462Z,-1.80
2024-01-15T22:39:52.970Z,-1.71
2024-01-15T22:42:20.474Z,-1.76
2024-01-15T22:44:48.298Z,-1.69
2024-01-15T22:47:16.040Z,-1.69
2024-01-15T22:49:44.209Z,-1.71
2024-01-15T22:52:11.705Z,-1.70
2024-01-15T22:54:39.206Z,-1.72
2024-01-15T22:57:06.738Z,-1.72
2024-01-15T22:59:34.300Z,-1.70
2024-01-15T23:02:02.002Z,-1.73
2024-01-15T23:04:29.631Z,-1.62
2024-01-15T23:06:57.213Z,-1.63
2024-01-15T23:09:25.813Z,-1.58
2024-01-15T23:11:53.359Z,-1.58
2024-01-15T23:14:21.318Z,-1.60
2024-01-15T23:16:48.927Z,-1.61
2024-01-15T23:19:16.689Z,-1.59
2024-01-15T23:21:44.658Z,-1.61
2024-01-15T23:24:12.153Z,-1.60
2024-01-15T23:26:40.249Z,-1.55
2024-01-15T23:29:07.777Z,-1.54
2024-01-15T23:31:35.303Z,-1.58
2024-01-15T23:34:02.879Z,-1.55
2024-01-15T23:36:30.459Z,-1.69
2024-01-15T23:38:58.024Z,-1.67
2024-01-15T23:41:25.584Z,-1.58
2024-01-15T23:43:53.143Z,-1.61
2024-01-15T23:46:21.049Z,-1.56
2024-01-15T23:48:48.822Z,-1.56
2024-01-15T23:51:16.553Z,-1.57
2024-01-15T23:53:44.279Z,-1.56
2024-01-15T23:56:14.145Z,-1.67
2024-01-15T23:58:41.857Z,-1.68
